IRA604 OIII-UTDD
Flight info
| Callsign | IRA604 |
|---|---|
| Flight time | 1h 59m |
| Altitude | 33000 |
| Route | DHN B451 BRD L720 RIKOP B114 ASB A117 LBA B376 MANAT/K0817F330 Z777 INDUD Q169 SOPNO SOPNO1N |
| Aircraft | MD88/M-SDFGIRWY/S |
Departure
| Time | 2026-05-08 10:34 |
|---|---|
| Airport | Mehrabad International Airport (OIII) |
Arrival
| Time | 2026-05-08 12:34 |
|---|---|
| Airport | Dushanbe International Airport (UTDD) |
| Time | Latitude | Longitude | Altitude | Speed | Heading |
|---|---|---|---|---|---|
| 2026-05-08 10:05 | 35.68986 | 51.32441 | 3967 ft | 0 kts | 19° |
| 2026-05-08 10:19 | 35.68985 | 51.32440 | 3967 ft | 0 kts | 19° |
| 2026-05-08 10:20 | 35.68984 | 51.32439 | 3967 ft | 1 kts | 19° |
| 2026-05-08 10:20 | 35.68971 | 51.32434 | 3967 ft | 2 kts | 19° |
| 2026-05-08 10:21 | 35.68956 | 51.32433 | 3967 ft | 2 kts | 343° |
| 2026-05-08 10:21 | 35.68943 | 51.32442 | 3967 ft | 2 kts | 314° |
| 2026-05-08 10:21 | 35.68936 | 51.32456 | 3967 ft | 1 kts | 286° |
| 2026-05-08 10:21 | 35.68932 | 51.32473 | 3967 ft | 2 kts | 286° |
| 2026-05-08 10:22 | 35.68929 | 51.32486 | 3967 ft | 0 kts | 289° |
| 2026-05-08 10:22 | 35.68928 | 51.32487 | 3967 ft | 0 kts | 290° |
| 2026-05-08 10:27 | 35.68929 | 51.32486 | 3967 ft | 0 kts | 290° |
| 2026-05-08 10:27 | 35.68940 | 51.32449 | 3967 ft | 7 kts | 290° |
| 2026-05-08 10:27 | 35.68953 | 51.32391 | 3967 ft | 5 kts | 276° |
| 2026-05-08 10:27 | 35.68953 | 51.32373 | 3967 ft | 3 kts | 255° |
| 2026-05-08 10:28 | 35.68948 | 51.32362 | 3967 ft | 2 kts | 240° |
| 2026-05-08 10:28 | 35.68929 | 51.32330 | 3967 ft | 8 kts | 233° |
| 2026-05-08 10:28 | 35.68859 | 51.32311 | 3967 ft | 12 kts | 124° |
| 2026-05-08 10:29 | 35.68834 | 51.32399 | 3967 ft | 9 kts | 108° |
| 2026-05-08 10:29 | 35.68818 | 51.32459 | 3967 ft | 5 kts | 109° |
| 2026-05-08 10:29 | 35.68808 | 51.32492 | 3967 ft | 4 kts | 110° |
| 2026-05-08 10:29 | 35.68791 | 51.32547 | 3967 ft | 9 kts | 110° |
| 2026-05-08 10:30 | 35.68758 | 51.32655 | 3967 ft | 17 kts | 110° |
| 2026-05-08 10:30 | 35.68710 | 51.32816 | 3966 ft | 22 kts | 110° |
| 2026-05-08 10:30 | 35.68654 | 51.33005 | 3966 ft | 24 kts | 108° |
| 2026-05-08 10:30 | 35.68610 | 51.33163 | 3967 ft | 16 kts | 109° |
| 2026-05-08 10:31 | 35.68568 | 51.33309 | 3967 ft | 16 kts | 109° |
| 2026-05-08 10:31 | 35.68517 | 51.33416 | 3967 ft | 15 kts | 134° |
| 2026-05-08 10:31 | 35.68446 | 51.33467 | 3966 ft | 7 kts | 171° |
| 2026-05-08 10:31 | 35.68384 | 51.33460 | 3966 ft | 10 kts | 191° |
| 2026-05-08 10:32 | 35.68303 | 51.33438 | 3966 ft | 13 kts | 194° |
| 2026-05-08 10:32 | 35.68241 | 51.33368 | 3966 ft | 11 kts | 270° |
| 2026-05-08 10:32 | 35.68251 | 51.33327 | 3966 ft | 0 kts | 289° |
| 2026-05-08 10:33 | 35.68254 | 51.33314 | 3966 ft | 5 kts | 289° |
| 2026-05-08 10:33 | 35.68282 | 51.33219 | 3966 ft | 28 kts | 289° |
| 2026-05-08 10:33 | 35.68400 | 51.32814 | 3966 ft | 74 kts | 289° |
| 2026-05-08 10:33 | 35.68623 | 51.32042 | 3966 ft | 117 kts | 289° |
| 2026-05-08 10:34 | 35.68953 | 51.30941 | 3967 ft | 154 kts | 290° |
| 2026-05-08 10:34 | 35.69349 | 51.29588 | 4049 ft | 177 kts | 290° |
| 2026-05-08 10:34 | 35.69815 | 51.28204 | 4531 ft | 173 kts | 292° |
| 2026-05-08 10:34 | 35.70275 | 51.26920 | 5074 ft | 165 kts | 296° |
| 2026-05-08 10:35 | 35.70484 | 51.25542 | 5366 ft | 168 kts | 259° |
| 2026-05-08 10:35 | 35.69985 | 51.24273 | 5752 ft | 169 kts | 225° |
| 2026-05-08 10:35 | 35.68967 | 51.23581 | 6163 ft | 171 kts | 192° |
| 2026-05-08 10:35 | 35.67773 | 51.23716 | 6456 ft | 184 kts | 159° |
| 2026-05-08 10:36 | 35.66806 | 51.24811 | 6638 ft | 202 kts | 118° |
| 2026-05-08 10:36 | 35.66537 | 51.26560 | 6843 ft | 218 kts | 90° |
| 2026-05-08 10:36 | 35.66468 | 51.28500 | 7053 ft | 232 kts | 96° |
| 2026-05-08 10:36 | 35.66295 | 51.30540 | 7206 ft | 248 kts | 99° |
| 2026-05-08 10:37 | 35.66023 | 51.32777 | 7123 ft | 282 kts | 102° |
| 2026-05-08 10:37 | 35.65626 | 51.35248 | 7390 ft | 300 kts | 104° |
| 2026-05-08 10:37 | 35.65156 | 51.37710 | 8127 ft | 298 kts | 106° |
| 2026-05-08 10:37 | 35.64625 | 51.40158 | 8685 ft | 302 kts | 108° |
| 2026-05-08 10:38 | 35.64044 | 51.42622 | 9341 ft | 303 kts | 109° |
| 2026-05-08 10:38 | 35.63418 | 51.45119 | 9953 ft | 304 kts | 110° |
| 2026-05-08 10:38 | 35.62779 | 51.47549 | 10357 ft | 314 kts | 111° |
| 2026-05-08 10:38 | 35.62061 | 51.50165 | 10390 ft | 339 kts | 111° |
| 2026-05-08 10:39 | 35.61270 | 51.52972 | 10652 ft | 353 kts | 112° |
| 2026-05-08 10:39 | 35.60458 | 51.55815 | 11329 ft | 354 kts | 112° |
| 2026-05-08 10:39 | 35.59620 | 51.58701 | 11750 ft | 364 kts | 112° |
| 2026-05-08 10:39 | 35.58757 | 51.61631 | 12549 ft | 361 kts | 113° |
| 2026-05-08 10:40 | 35.57904 | 51.64516 | 13032 ft | 368 kts | 113° |
| 2026-05-08 10:40 | 35.57031 | 51.67453 | 13680 ft | 369 kts | 114° |
| 2026-05-08 10:40 | 35.56136 | 51.70446 | 14229 ft | 373 kts | 114° |
| 2026-05-08 10:40 | 35.55234 | 51.73447 | 14689 ft | 379 kts | 114° |
| 2026-05-08 10:41 | 35.54311 | 51.76535 | 15274 ft | 381 kts | 115° |
| 2026-05-08 10:41 | 35.53406 | 51.79547 | 15860 ft | 383 kts | 115° |
| 2026-05-08 10:41 | 35.52470 | 51.82667 | 16240 ft | 391 kts | 114° |
| 2026-05-08 10:41 | 35.51533 | 51.85786 | 16863 ft | 391 kts | 114° |
| 2026-05-08 10:42 | 35.50589 | 51.88921 | 17301 ft | 396 kts | 114° |
| 2026-05-08 10:42 | 35.49636 | 51.92101 | 17738 ft | 401 kts | 114° |
| 2026-05-08 10:42 | 35.48683 | 51.95282 | 18272 ft | 402 kts | 115° |
| 2026-05-08 10:42 | 35.47723 | 51.98487 | 18812 ft | 404 kts | 115° |
| 2026-05-08 10:43 | 35.46748 | 52.01744 | 19324 ft | 406 kts | 114° |
| 2026-05-08 10:43 | 35.45782 | 52.04968 | 19744 ft | 409 kts | 115° |
| 2026-05-08 10:43 | 35.44805 | 52.08241 | 20325 ft | 408 kts | 115° |
| 2026-05-08 10:43 | 35.43819 | 52.11538 | 20640 ft | 415 kts | 115° |
| 2026-05-08 10:44 | 35.42828 | 52.14854 | 21159 ft | 415 kts | 115° |
| 2026-05-08 10:44 | 35.41834 | 52.18190 | 21546 ft | 418 kts | 115° |
| 2026-05-08 10:44 | 35.40837 | 52.21535 | 21991 ft | 420 kts | 115° |
| 2026-05-08 10:44 | 35.39845 | 52.24867 | 22419 ft | 422 kts | 115° |
| 2026-05-08 10:45 | 35.38826 | 52.28272 | 22737 ft | 426 kts | 116° |
| 2026-05-08 10:45 | 35.37780 | 52.31674 | 23168 ft | 427 kts | 116° |
| 2026-05-08 10:45 | 35.36729 | 52.35091 | 23463 ft | 432 kts | 116° |
| 2026-05-08 10:45 | 35.35672 | 52.38521 | 23888 ft | 433 kts | 117° |
| 2026-05-08 10:46 | 35.34599 | 52.42002 | 24250 ft | 436 kts | 117° |
| 2026-05-08 10:46 | 35.33540 | 52.45447 | 24658 ft | 437 kts | 117° |
| 2026-05-08 10:46 | 35.32465 | 52.48924 | 24928 ft | 441 kts | 117° |
| 2026-05-08 10:46 | 35.31385 | 52.52436 | 25292 ft | 442 kts | 117° |
| 2026-05-08 10:47 | 35.30288 | 52.55997 | 25624 ft | 445 kts | 117° |
| 2026-05-08 10:47 | 35.29207 | 52.59505 | 25891 ft | 449 kts | 117° |
| 2026-05-08 10:47 | 35.28104 | 52.63104 | 26293 ft | 449 kts | 117° |
| 2026-05-08 10:47 | 35.27008 | 52.66673 | 26601 ft | 451 kts | 118° |
| 2026-05-08 10:48 | 35.26243 | 52.70448 | 26793 ft | 470 kts | 102° |
| 2026-05-08 10:48 | 35.26382 | 52.74480 | 27060 ft | 486 kts | 84° |
| 2026-05-08 10:48 | 35.27438 | 52.78431 | 27386 ft | 496 kts | 67° |
| 2026-05-08 10:48 | 35.29331 | 52.82023 | 27530 ft | 505 kts | 52° |
| 2026-05-08 10:49 | 35.31493 | 52.85430 | 27843 ft | 505 kts | 55° |
| 2026-05-08 10:49 | 35.33534 | 52.88947 | 27940 ft | 511 kts | 58° |
| 2026-05-08 10:49 | 35.35493 | 52.92497 | 28355 ft | 509 kts | 58° |
| 2026-05-08 10:49 | 35.37452 | 52.96172 | 28502 ft | 514 kts | 60° |
| 2026-05-08 10:50 | 35.39364 | 52.99823 | 28763 ft | 516 kts | 61° |
| 2026-05-08 10:50 | 35.41290 | 53.03566 | 28986 ft | 519 kts | 60° |
| 2026-05-08 10:50 | 35.43205 | 53.07310 | 29307 ft | 520 kts | 61° |
| 2026-05-08 10:50 | 35.45110 | 53.11053 | 29516 ft | 522 kts | 61° |
| 2026-05-08 10:51 | 35.47040 | 53.14860 | 29829 ft | 523 kts | 61° |
| 2026-05-08 10:51 | 35.48929 | 53.18590 | 30178 ft | 523 kts | 60° |
| 2026-05-08 10:51 | 35.50842 | 53.22372 | 30544 ft | 522 kts | 60° |
| 2026-05-08 10:51 | 35.52757 | 53.26165 | 30738 ft | 526 kts | 60° |
| 2026-05-08 10:52 | 35.54701 | 53.29999 | 31149 ft | 524 kts | 60° |
| 2026-05-08 10:52 | 35.56625 | 53.33797 | 31438 ft | 525 kts | 59° |
| 2026-05-08 10:52 | 35.58556 | 53.37624 | 31566 ft | 530 kts | 60° |
| 2026-05-08 10:52 | 35.60459 | 53.41429 | 31994 ft | 527 kts | 59° |
| 2026-05-08 10:53 | 35.62367 | 53.45284 | 32293 ft | 527 kts | 60° |
| 2026-05-08 10:53 | 35.64260 | 53.49117 | 32494 ft | 530 kts | 59° |
| 2026-05-08 10:53 | 35.66073 | 53.52781 | 32835 ft | 529 kts | 59° |
| 2026-05-08 10:53 | 35.67959 | 53.56611 | 32985 ft | 533 kts | 59° |
| 2026-05-08 10:54 | 35.69878 | 53.60506 | 33262 ft | 527 kts | 59° |
| 2026-05-08 10:54 | 35.73675 | 53.68208 | 33223 ft | 523 kts | 59° |
| 2026-05-08 10:55 | 35.77469 | 53.75897 | 33244 ft | 530 kts | 59° |
| 2026-05-08 10:55 | 35.81295 | 53.83640 | 33239 ft | 530 kts | 59° |
| 2026-05-08 10:56 | 35.85124 | 53.91384 | 33242 ft | 528 kts | 59° |
| 2026-05-08 10:56 | 35.88933 | 53.99083 | 33228 ft | 528 kts | 59° |
| 2026-05-08 10:57 | 35.92742 | 54.06774 | 33198 ft | 528 kts | 59° |
| 2026-05-08 10:57 | 35.98486 | 54.18350 | 33171 ft | 526 kts | 59° |
| 2026-05-08 10:58 | 36.02287 | 54.26014 | 33152 ft | 527 kts | 60° |
| 2026-05-08 10:58 | 36.06069 | 54.33790 | 33155 ft | 528 kts | 59° |
| 2026-05-08 10:59 | 36.09857 | 54.41584 | 33149 ft | 529 kts | 58° |
| 2026-05-08 10:59 | 36.13591 | 54.49244 | 33140 ft | 528 kts | 58° |
| 2026-05-08 11:00 | 36.17367 | 54.57065 | 33131 ft | 529 kts | 59° |
| 2026-05-08 11:00 | 36.21107 | 54.64841 | 33121 ft | 530 kts | 58° |
| 2026-05-08 11:01 | 36.24867 | 54.72657 | 33102 ft | 529 kts | 59° |
| 2026-05-08 11:01 | 36.28645 | 54.80516 | 33124 ft | 530 kts | 59° |
| 2026-05-08 11:02 | 36.34300 | 54.92280 | 33129 ft | 531 kts | 59° |
| 2026-05-08 11:03 | 36.38076 | 55.00110 | 33142 ft | 531 kts | 58° |
| 2026-05-08 11:03 | 36.41875 | 55.07970 | 33133 ft | 531 kts | 59° |
| 2026-05-08 11:04 | 36.45711 | 55.15744 | 33135 ft | 530 kts | 58° |
| 2026-05-08 11:04 | 36.49549 | 55.23560 | 33133 ft | 529 kts | 58° |
| 2026-05-08 11:05 | 36.53393 | 55.31385 | 33138 ft | 530 kts | 58° |
| 2026-05-08 11:05 | 36.57216 | 55.39180 | 33161 ft | 529 kts | 58° |
| 2026-05-08 11:06 | 36.61050 | 55.46981 | 33155 ft | 528 kts | 58° |
| 2026-05-08 11:06 | 36.64891 | 55.54791 | 33179 ft | 526 kts | 58° |
| 2026-05-08 11:07 | 36.68708 | 55.62606 | 33184 ft | 526 kts | 59° |
| 2026-05-08 11:07 | 36.72482 | 55.70419 | 33155 ft | 526 kts | 60° |
| 2026-05-08 11:08 | 36.76211 | 55.78190 | 33148 ft | 523 kts | 59° |
| 2026-05-08 11:08 | 36.79938 | 55.85945 | 33147 ft | 522 kts | 59° |
| 2026-05-08 11:09 | 36.83670 | 55.93704 | 33151 ft | 523 kts | 59° |
| 2026-05-08 11:09 | 36.87406 | 56.01474 | 33147 ft | 523 kts | 59° |
| 2026-05-08 11:10 | 36.91143 | 56.09225 | 33144 ft | 521 kts | 58° |
| 2026-05-08 11:10 | 36.94865 | 56.16935 | 33150 ft | 521 kts | 59° |
| 2026-05-08 11:11 | 36.98624 | 56.24715 | 33146 ft | 521 kts | 58° |
| 2026-05-08 11:11 | 37.02363 | 56.32443 | 33142 ft | 521 kts | 59° |
| 2026-05-08 11:12 | 37.06109 | 56.40184 | 33142 ft | 522 kts | 58° |
| 2026-05-08 11:12 | 37.09837 | 56.47917 | 33148 ft | 521 kts | 59° |
| 2026-05-08 11:13 | 37.13529 | 56.55736 | 33151 ft | 521 kts | 59° |
| 2026-05-08 11:13 | 37.17228 | 56.63566 | 33163 ft | 522 kts | 59° |
| 2026-05-08 11:14 | 37.20917 | 56.71368 | 33172 ft | 522 kts | 59° |
| 2026-05-08 11:14 | 37.24630 | 56.79228 | 33185 ft | 522 kts | 59° |
| 2026-05-08 11:15 | 37.28332 | 56.87042 | 33195 ft | 523 kts | 59° |
| 2026-05-08 11:15 | 37.32025 | 56.94891 | 33203 ft | 523 kts | 59° |
| 2026-05-08 11:16 | 37.35718 | 57.02789 | 33196 ft | 523 kts | 59° |
| 2026-05-08 11:16 | 37.39364 | 57.10606 | 33172 ft | 524 kts | 59° |
| 2026-05-08 11:17 | 37.43057 | 57.18505 | 33165 ft | 523 kts | 59° |
| 2026-05-08 11:17 | 37.46745 | 57.26386 | 33121 ft | 521 kts | 59° |
| 2026-05-08 11:18 | 37.50084 | 57.34434 | 33114 ft | 522 kts | 69° |
| 2026-05-08 11:18 | 37.51996 | 57.43192 | 33142 ft | 518 kts | 81° |
| 2026-05-08 11:19 | 37.53479 | 57.52014 | 33134 ft | 518 kts | 79° |
| 2026-05-08 11:19 | 37.55089 | 57.60851 | 33187 ft | 518 kts | 78° |
| 2026-05-08 11:20 | 37.56736 | 57.69616 | 33184 ft | 517 kts | 78° |
| 2026-05-08 11:20 | 37.58403 | 57.78380 | 33213 ft | 515 kts | 78° |
| 2026-05-08 11:21 | 37.59819 | 57.85738 | 33237 ft | 517 kts | 77° |
| 2026-05-08 11:21 | 37.61789 | 57.95931 | 33253 ft | 515 kts | 77° |
| 2026-05-08 11:22 | 37.63485 | 58.04699 | 33260 ft | 514 kts | 77° |
| 2026-05-08 11:22 | 37.65194 | 58.13455 | 33276 ft | 515 kts | 77° |
| 2026-05-08 11:23 | 37.67482 | 58.21984 | 33318 ft | 513 kts | 56° |
| 2026-05-08 11:23 | 37.69659 | 58.25455 | 33316 ft | 507 kts | 39° |
| 2026-05-08 11:23 | 37.72458 | 58.28097 | 33313 ft | 495 kts | 22° |
| 2026-05-08 11:23 | 37.75583 | 58.29666 | 33293 ft | 480 kts | 5° |
| 2026-05-08 11:24 | 37.78832 | 58.30117 | 33248 ft | 462 kts | 350° |
| 2026-05-08 11:24 | 37.85321 | 58.30540 | 33179 ft | 471 kts | 359° |
| 2026-05-08 11:25 | 37.91851 | 58.31726 | 33122 ft | 474 kts | 1° |
| 2026-05-08 11:25 | 37.98235 | 58.33988 | 33086 ft | 490 kts | 25° |
| 2026-05-08 11:25 | 38.00979 | 58.36562 | 33081 ft | 501 kts | 41° |
| 2026-05-08 11:26 | 38.03140 | 58.40017 | 33085 ft | 507 kts | 58° |
| 2026-05-08 11:26 | 38.04547 | 58.44126 | 33067 ft | 509 kts | 76° |
| 2026-05-08 11:26 | 38.05107 | 58.48553 | 33084 ft | 506 kts | 86° |
| 2026-05-08 11:27 | 38.06246 | 58.57330 | 33042 ft | 509 kts | 79° |
| 2026-05-08 11:27 | 38.07856 | 58.66086 | 33029 ft | 508 kts | 77° |
| 2026-05-08 11:28 | 38.09646 | 58.74776 | 33018 ft | 508 kts | 75° |
| 2026-05-08 11:28 | 38.11512 | 58.83412 | 33000 ft | 509 kts | 76° |
| 2026-05-08 11:29 | 38.13422 | 58.92078 | 33002 ft | 509 kts | 76° |
| 2026-05-08 11:29 | 38.15354 | 59.00754 | 33009 ft | 510 kts | 75° |
| 2026-05-08 11:30 | 38.17287 | 59.09388 | 33002 ft | 510 kts | 75° |
| 2026-05-08 11:30 | 38.19227 | 59.18019 | 33003 ft | 509 kts | 75° |
| 2026-05-08 11:31 | 38.21172 | 59.26649 | 33004 ft | 510 kts | 75° |
| 2026-05-08 11:31 | 38.23112 | 59.35318 | 33001 ft | 509 kts | 76° |
| 2026-05-08 11:32 | 38.24950 | 59.43924 | 33001 ft | 507 kts | 75° |
| 2026-05-08 11:32 | 38.26780 | 59.52566 | 32995 ft | 508 kts | 75° |
| 2026-05-08 11:33 | 38.28609 | 59.61217 | 32997 ft | 507 kts | 75° |
| 2026-05-08 11:33 | 38.30442 | 59.69889 | 32981 ft | 507 kts | 75° |
| 2026-05-08 11:34 | 38.32284 | 59.78582 | 32982 ft | 507 kts | 75° |
| 2026-05-08 11:34 | 38.34116 | 59.87184 | 32983 ft | 508 kts | 75° |
| 2026-05-08 11:35 | 38.35963 | 59.95844 | 32989 ft | 506 kts | 75° |
| 2026-05-08 11:35 | 38.37809 | 60.04465 | 32995 ft | 506 kts | 75° |
| 2026-05-08 11:36 | 38.39654 | 60.13051 | 32997 ft | 507 kts | 75° |
| 2026-05-08 11:36 | 38.41518 | 60.21706 | 32999 ft | 507 kts | 74° |
| 2026-05-08 11:37 | 38.43388 | 60.30342 | 33000 ft | 507 kts | 74° |
| 2026-05-08 11:37 | 38.45222 | 60.39018 | 32993 ft | 508 kts | 75° |
| 2026-05-08 11:38 | 38.46988 | 60.47728 | 32994 ft | 508 kts | 75° |
| 2026-05-08 11:38 | 38.48742 | 60.56429 | 32994 ft | 507 kts | 75° |
| 2026-05-08 11:39 | 38.50493 | 60.65107 | 32995 ft | 507 kts | 76° |
| 2026-05-08 11:39 | 38.52231 | 60.73722 | 32990 ft | 506 kts | 76° |
| 2026-05-08 11:40 | 38.54000 | 60.82472 | 32987 ft | 507 kts | 75° |
| 2026-05-08 11:40 | 38.55773 | 60.91193 | 32983 ft | 508 kts | 75° |
| 2026-05-08 11:41 | 38.57543 | 60.99875 | 32984 ft | 508 kts | 75° |
| 2026-05-08 11:41 | 38.59323 | 61.08576 | 32989 ft | 507 kts | 75° |
| 2026-05-08 11:42 | 38.61102 | 61.17239 | 32996 ft | 506 kts | 74° |
| 2026-05-08 11:42 | 38.62891 | 61.25928 | 32987 ft | 507 kts | 75° |
| 2026-05-08 11:43 | 38.64687 | 61.34619 | 32991 ft | 506 kts | 74° |
| 2026-05-08 11:43 | 38.66282 | 61.43338 | 32989 ft | 505 kts | 80° |
| 2026-05-08 11:44 | 38.67287 | 61.52203 | 32989 ft | 505 kts | 81° |
| 2026-05-08 11:44 | 38.68320 | 61.61111 | 32985 ft | 505 kts | 81° |
| 2026-05-08 11:45 | 38.69360 | 61.69952 | 32975 ft | 504 kts | 82° |
| 2026-05-08 11:45 | 38.70415 | 61.78818 | 32975 ft | 504 kts | 81° |
| 2026-05-08 11:46 | 38.71467 | 61.87616 | 32974 ft | 504 kts | 81° |
| 2026-05-08 11:46 | 38.72537 | 61.96495 | 32972 ft | 504 kts | 81° |
| 2026-05-08 11:47 | 38.73604 | 62.05291 | 32971 ft | 503 kts | 81° |
| 2026-05-08 11:47 | 38.74683 | 62.14119 | 32971 ft | 501 kts | 81° |
| 2026-05-08 11:48 | 38.75762 | 62.22885 | 32972 ft | 502 kts | 81° |
| 2026-05-08 11:48 | 38.76852 | 62.31709 | 32978 ft | 502 kts | 81° |
| 2026-05-08 11:49 | 38.77952 | 62.40548 | 32976 ft | 502 kts | 81° |
| 2026-05-08 11:49 | 38.79042 | 62.49315 | 32978 ft | 503 kts | 81° |
| 2026-05-08 11:50 | 38.80033 | 62.58155 | 32978 ft | 502 kts | 81° |
| 2026-05-08 11:50 | 38.81012 | 62.67008 | 32977 ft | 501 kts | 82° |
| 2026-05-08 11:51 | 38.81976 | 62.75801 | 32974 ft | 501 kts | 82° |
| 2026-05-08 11:51 | 38.82952 | 62.84658 | 32976 ft | 500 kts | 82° |
| 2026-05-08 11:52 | 38.83923 | 62.93432 | 32976 ft | 500 kts | 82° |
| 2026-05-08 11:52 | 38.84900 | 63.02227 | 32979 ft | 500 kts | 82° |
| 2026-05-08 11:53 | 38.85884 | 63.11026 | 32979 ft | 499 kts | 81° |
| 2026-05-08 11:53 | 38.86877 | 63.19812 | 32978 ft | 499 kts | 81° |
| 2026-05-08 11:54 | 38.87873 | 63.28589 | 32974 ft | 500 kts | 81° |
| 2026-05-08 11:54 | 38.88877 | 63.37405 | 32963 ft | 499 kts | 81° |
| 2026-05-08 11:55 | 38.89887 | 63.46173 | 32971 ft | 499 kts | 81° |
| 2026-05-08 11:55 | 38.90900 | 63.54985 | 32963 ft | 499 kts | 81° |
| 2026-05-08 11:56 | 38.92620 | 63.63543 | 32965 ft | 496 kts | 65° |
| 2026-05-08 11:56 | 38.95147 | 63.71783 | 32950 ft | 496 kts | 66° |
| 2026-05-08 11:57 | 38.97611 | 63.80022 | 32951 ft | 496 kts | 67° |
| 2026-05-08 11:57 | 39.00077 | 63.88346 | 32944 ft | 499 kts | 67° |
| 2026-05-08 11:58 | 39.02533 | 63.96648 | 32944 ft | 497 kts | 66° |
| 2026-05-08 11:58 | 39.04989 | 64.04959 | 32952 ft | 497 kts | 66° |
| 2026-05-08 11:59 | 39.07238 | 64.13302 | 32941 ft | 498 kts | 78° |
| 2026-05-08 11:59 | 39.07567 | 64.17712 | 32971 ft | 500 kts | 90° |
| 2026-05-08 11:59 | 39.07168 | 64.22176 | 32960 ft | 498 kts | 105° |
| 2026-05-08 11:59 | 39.06041 | 64.26334 | 32990 ft | 495 kts | 112° |
| 2026-05-08 12:00 | 39.03841 | 64.34724 | 32956 ft | 497 kts | 109° |
| 2026-05-08 12:00 | 39.01839 | 64.43188 | 32951 ft | 494 kts | 108° |
| 2026-05-08 12:01 | 38.99947 | 64.51636 | 32950 ft | 493 kts | 107° |
| 2026-05-08 12:01 | 38.98091 | 64.60106 | 32962 ft | 493 kts | 107° |
| 2026-05-08 12:02 | 38.96263 | 64.68549 | 32946 ft | 490 kts | 107° |
| 2026-05-08 12:02 | 38.94448 | 64.77006 | 32953 ft | 491 kts | 107° |
| 2026-05-08 12:03 | 38.92637 | 64.85469 | 32967 ft | 492 kts | 107° |
| 2026-05-08 12:03 | 38.90877 | 64.93722 | 32962 ft | 490 kts | 106° |
| 2026-05-08 12:04 | 38.89092 | 65.02139 | 32962 ft | 488 kts | 107° |
| 2026-05-08 12:04 | 38.87278 | 65.10508 | 32969 ft | 489 kts | 107° |
| 2026-05-08 12:05 | 38.85382 | 65.18941 | 32973 ft | 491 kts | 107° |
| 2026-05-08 12:05 | 38.83497 | 65.27268 | 32976 ft | 489 kts | 107° |
| 2026-05-08 12:06 | 38.81593 | 65.35671 | 32976 ft | 490 kts | 107° |
| 2026-05-08 12:06 | 38.79705 | 65.44009 | 32977 ft | 490 kts | 107° |
| 2026-05-08 12:07 | 38.77821 | 65.52361 | 32980 ft | 490 kts | 106° |
| 2026-05-08 12:07 | 38.75933 | 65.60759 | 32986 ft | 490 kts | 106° |
| 2026-05-08 12:08 | 38.74072 | 65.69068 | 32979 ft | 489 kts | 107° |
| 2026-05-08 12:08 | 38.72197 | 65.77454 | 32972 ft | 489 kts | 107° |
| 2026-05-08 12:09 | 38.70336 | 65.85792 | 32973 ft | 490 kts | 106° |
| 2026-05-08 12:09 | 38.68472 | 65.94186 | 32975 ft | 488 kts | 106° |
| 2026-05-08 12:10 | 38.66621 | 66.02545 | 32986 ft | 490 kts | 106° |
| 2026-05-08 12:10 | 38.64762 | 66.10892 | 33007 ft | 491 kts | 107° |
| 2026-05-08 12:11 | 38.62823 | 66.19308 | 33006 ft | 490 kts | 106° |
| 2026-05-08 12:11 | 38.61558 | 66.27763 | 33034 ft | 487 kts | 92° |
| 2026-05-08 12:12 | 38.61315 | 66.36404 | 33040 ft | 488 kts | 90° |
| 2026-05-08 12:12 | 38.61008 | 66.45095 | 33058 ft | 488 kts | 90° |
| 2026-05-08 12:13 | 38.60672 | 66.53719 | 33023 ft | 487 kts | 90° |
| 2026-05-08 12:13 | 38.60499 | 66.58042 | 32460 ft | 487 kts | 91° |
| 2026-05-08 12:13 | 38.60328 | 66.62330 | 31914 ft | 483 kts | 90° |
| 2026-05-08 12:14 | 38.60159 | 66.66592 | 31363 ft | 479 kts | 92° |
| 2026-05-08 12:14 | 38.59988 | 66.70846 | 30798 ft | 475 kts | 92° |
| 2026-05-08 12:14 | 38.59822 | 66.75042 | 30250 ft | 472 kts | 92° |
| 2026-05-08 12:14 | 38.59659 | 66.79195 | 29706 ft | 468 kts | 92° |
| 2026-05-08 12:15 | 38.59501 | 66.83253 | 29180 ft | 464 kts | 92° |
| 2026-05-08 12:15 | 38.59335 | 66.87431 | 28633 ft | 460 kts | 92° |
| 2026-05-08 12:15 | 38.59231 | 66.90126 | 28283 ft | 458 kts | 92° |
| 2026-05-08 12:15 | 38.59024 | 66.95495 | 27593 ft | 453 kts | 91° |
| 2026-05-08 12:16 | 38.58874 | 66.99458 | 27085 ft | 449 kts | 91° |
| 2026-05-08 12:16 | 38.58727 | 67.03403 | 26579 ft | 444 kts | 92° |
| 2026-05-08 12:16 | 38.58578 | 67.07307 | 26079 ft | 440 kts | 91° |
| 2026-05-08 12:16 | 38.58437 | 67.11178 | 25590 ft | 435 kts | 92° |
| 2026-05-08 12:17 | 38.58298 | 67.15017 | 25097 ft | 431 kts | 91° |
| 2026-05-08 12:17 | 38.58161 | 67.18792 | 24616 ft | 426 kts | 91° |
| 2026-05-08 12:17 | 38.58024 | 67.22585 | 24129 ft | 422 kts | 91° |
| 2026-05-08 12:17 | 38.57893 | 67.26292 | 23650 ft | 418 kts | 91° |
| 2026-05-08 12:18 | 38.57764 | 67.29951 | 23182 ft | 414 kts | 91° |
| 2026-05-08 12:18 | 38.57639 | 67.33598 | 22726 ft | 410 kts | 91° |
| 2026-05-08 12:18 | 38.57489 | 67.37226 | 22285 ft | 406 kts | 92° |
| 2026-05-08 12:18 | 38.57326 | 67.40791 | 21856 ft | 403 kts | 92° |
| 2026-05-08 12:19 | 38.57165 | 67.44331 | 21431 ft | 400 kts | 92° |
| 2026-05-08 12:19 | 38.56999 | 67.47860 | 21014 ft | 396 kts | 92° |
| 2026-05-08 12:19 | 38.56838 | 67.51333 | 20602 ft | 392 kts | 92° |
| 2026-05-08 12:19 | 38.56676 | 67.54765 | 20186 ft | 389 kts | 92° |
| 2026-05-08 12:20 | 38.56515 | 67.58186 | 19764 ft | 385 kts | 93° |
| 2026-05-08 12:20 | 38.56354 | 67.61611 | 19347 ft | 381 kts | 93° |
| 2026-05-08 12:20 | 38.56201 | 67.64917 | 18942 ft | 378 kts | 93° |
| 2026-05-08 12:20 | 38.56046 | 67.68243 | 18534 ft | 374 kts | 94° |
| 2026-05-08 12:21 | 38.55891 | 67.71575 | 18123 ft | 371 kts | 93° |
| 2026-05-08 12:21 | 38.55742 | 67.74816 | 17719 ft | 369 kts | 94° |
| 2026-05-08 12:21 | 38.55592 | 67.78101 | 17324 ft | 367 kts | 94° |
| 2026-05-08 12:21 | 38.55442 | 67.81351 | 16930 ft | 364 kts | 93° |
| 2026-05-08 12:22 | 38.55296 | 67.84544 | 16547 ft | 362 kts | 93° |
| 2026-05-08 12:22 | 38.55152 | 67.87727 | 16157 ft | 359 kts | 93° |
| 2026-05-08 12:22 | 38.55009 | 67.90899 | 15777 ft | 355 kts | 93° |
| 2026-05-08 12:22 | 38.54871 | 67.94005 | 15399 ft | 353 kts | 92° |
| 2026-05-08 12:23 | 38.54734 | 67.97111 | 15017 ft | 350 kts | 92° |
| 2026-05-08 12:23 | 38.54599 | 68.00187 | 14663 ft | 346 kts | 92° |
| 2026-05-08 12:23 | 38.54462 | 68.03268 | 14306 ft | 343 kts | 92° |
| 2026-05-08 12:23 | 38.54237 | 68.06273 | 13918 ft | 341 kts | 103° |
| 2026-05-08 12:24 | 38.53360 | 68.09054 | 13710 ft | 337 kts | 120° |
| 2026-05-08 12:24 | 38.51940 | 68.11414 | 13504 ft | 336 kts | 129° |
| 2026-05-08 12:24 | 38.50446 | 68.13711 | 13280 ft | 337 kts | 129° |
| 2026-05-08 12:24 | 38.48965 | 68.16005 | 13061 ft | 331 kts | 128° |
| 2026-05-08 12:25 | 38.47534 | 68.18250 | 12854 ft | 322 kts | 128° |
| 2026-05-08 12:25 | 38.46141 | 68.20459 | 12647 ft | 314 kts | 127° |
| 2026-05-08 12:25 | 38.44808 | 68.22579 | 12434 ft | 307 kts | 127° |
| 2026-05-08 12:25 | 38.43494 | 68.24702 | 12275 ft | 297 kts | 123° |
| 2026-05-08 12:26 | 38.42704 | 68.27095 | 12016 ft | 288 kts | 96° |
| 2026-05-08 12:26 | 38.42831 | 68.29597 | 11687 ft | 284 kts | 71° |
| 2026-05-08 12:26 | 38.43798 | 68.31751 | 11299 ft | 284 kts | 47° |
| 2026-05-08 12:26 | 38.45049 | 68.33684 | 10888 ft | 285 kts | 59° |
| 2026-05-08 12:27 | 38.46080 | 68.35841 | 10492 ft | 287 kts | 57° |
| 2026-05-08 12:27 | 38.47140 | 68.38010 | 10059 ft | 289 kts | 57° |
| 2026-05-08 12:27 | 38.48207 | 68.40170 | 9624 ft | 291 kts | 57° |
| 2026-05-08 12:27 | 38.49303 | 68.42364 | 9179 ft | 293 kts | 57° |
| 2026-05-08 12:28 | 38.50398 | 68.44549 | 8739 ft | 294 kts | 57° |
| 2026-05-08 12:28 | 38.51491 | 68.46715 | 8239 ft | 286 kts | 57° |
| 2026-05-08 12:28 | 38.52558 | 68.48814 | 7794 ft | 278 kts | 54° |
| 2026-05-08 12:28 | 38.53840 | 68.50602 | 7329 ft | 270 kts | 51° |
| 2026-05-08 12:29 | 38.54539 | 68.52741 | 6966 ft | 261 kts | 89° |
| 2026-05-08 12:29 | 38.54483 | 68.54960 | 6891 ft | 242 kts | 90° |
| 2026-05-08 12:29 | 38.54430 | 68.57109 | 6498 ft | 240 kts | 90° |
| 2026-05-08 12:29 | 38.54392 | 68.59229 | 6153 ft | 236 kts | 88° |
| 2026-05-08 12:30 | 38.54403 | 68.61279 | 5930 ft | 228 kts | 89° |
| 2026-05-08 12:30 | 38.54401 | 68.63253 | 5832 ft | 211 kts | 89° |
| 2026-05-08 12:30 | 38.54400 | 68.64959 | 5958 ft | 177 kts | 88° |
| 2026-05-08 12:30 | 38.54393 | 68.66476 | 5669 ft | 172 kts | 89° |
| 2026-05-08 12:31 | 38.54390 | 68.68006 | 5279 ft | 172 kts | 88° |
| 2026-05-08 12:31 | 38.54392 | 68.69368 | 4975 ft | 166 kts | 89° |
| 2026-05-08 12:31 | 38.54388 | 68.70317 | 4717 ft | 163 kts | 89° |
| 2026-05-08 12:31 | 38.54388 | 68.72211 | 4220 ft | 154 kts | 88° |
| 2026-05-08 12:32 | 38.54384 | 68.73540 | 3810 ft | 149 kts | 89° |
| 2026-05-08 12:32 | 38.54381 | 68.74813 | 3500 ft | 138 kts | 89° |
| 2026-05-08 12:32 | 38.54361 | 68.75993 | 3265 ft | 132 kts | 94° |
| 2026-05-08 12:32 | 38.54364 | 68.77185 | 3064 ft | 134 kts | 83° |
| 2026-05-08 12:33 | 38.54380 | 68.78410 | 2928 ft | 143 kts | 92° |
| 2026-05-08 12:33 | 38.54342 | 68.79683 | 2810 ft | 150 kts | 87° |
| 2026-05-08 12:33 | 38.54374 | 68.81011 | 2614 ft | 141 kts | 88° |
| 2026-05-08 12:33 | 38.54373 | 68.82137 | 2612 ft | 112 kts | 89° |
| 2026-05-08 12:34 | 38.54369 | 68.82918 | 2612 ft | 63 kts | 91° |
| 2026-05-08 12:34 | 38.54367 | 68.83137 | 2612 ft | 13 kts | 90° |
| 2026-05-08 12:34 | 38.54366 | 68.83212 | 2612 ft | 4 kts | 90° |
| 2026-05-08 12:34 | 38.54366 | 68.83241 | 2612 ft | 2 kts | 90° |
| 2026-05-08 12:35 | 38.54368 | 68.83256 | 2612 ft | 1 kts | 62° |
| 2026-05-08 12:35 | 38.54382 | 68.83270 | 2613 ft | 3 kts | 25° |
| 2026-05-08 12:35 | 38.54414 | 68.83282 | 2613 ft | 6 kts | 14° |
| 2026-05-08 12:35 | 38.54465 | 68.83289 | 2613 ft | 8 kts | 1° |
| 2026-05-08 12:36 | 38.54535 | 68.83292 | 2614 ft | 11 kts | 1° |
| 2026-05-08 12:36 | 38.54627 | 68.83294 | 2614 ft | 14 kts | 1° |
| 2026-05-08 12:36 | 38.54683 | 68.83279 | 2615 ft | 7 kts | 312° |
| 2026-05-08 12:36 | 38.54691 | 68.83205 | 2615 ft | 10 kts | 271° |
| 2026-05-08 12:37 | 38.54693 | 68.83101 | 2615 ft | 13 kts | 271° |
| 2026-05-08 12:37 | 38.54693 | 68.82979 | 2615 ft | 15 kts | 270° |
| 2026-05-08 12:37 | 38.54692 | 68.82826 | 2615 ft | 18 kts | 270° |
| 2026-05-08 12:37 | 38.54693 | 68.82650 | 2615 ft | 21 kts | 271° |
| 2026-05-08 12:38 | 38.54694 | 68.82449 | 2614 ft | 23 kts | 270° |
| 2026-05-08 12:38 | 38.54693 | 68.82242 | 2614 ft | 21 kts | 269° |
| 2026-05-08 12:38 | 38.54694 | 68.82066 | 2614 ft | 18 kts | 270° |
| 2026-05-08 12:38 | 38.54695 | 68.81916 | 2614 ft | 15 kts | 271° |
| 2026-05-08 12:39 | 38.54700 | 68.81799 | 2614 ft | 11 kts | 297° |
| 2026-05-08 12:39 | 38.54758 | 68.81775 | 2614 ft | 7 kts | 346° |
| 2026-05-08 12:39 | 38.54784 | 68.81741 | 2614 ft | 3 kts | 295° |
| 2026-05-08 12:39 | 38.54789 | 68.81704 | 2615 ft | 5 kts | 271° |
| 2026-05-08 12:40 | 38.54792 | 68.81656 | 2615 ft | 4 kts | 270° |
| 2026-05-08 12:40 | 38.54792 | 68.81628 | 2615 ft | 2 kts | 270° |
| 2026-05-08 12:40 | 38.54792 | 68.81587 | 2614 ft | 4 kts | 270° |
| 2026-05-08 12:40 | 38.54792 | 68.81575 | 2614 ft | 0 kts | 270° |